createdAt,value
2023-05-09T00:01:36.106Z,52.76
2023-05-09T00:06:41.117Z,52.90
2023-05-09T00:11:45.155Z,52.56
2023-05-09T00:16:49.207Z,52.26
2023-05-09T00:21:53.048Z,51.57
2023-05-09T00:26:56.957Z,50.72
2023-05-09T00:32:01.195Z,49.78
2023-05-09T00:37:05.143Z,49.09
2023-05-09T00:42:09.769Z,45.96
2023-05-09T00:47:13.656Z,44.73
2023-05-09T00:52:18.508Z,42.96
2023-05-09T00:57:23.865Z,40.49
2023-05-09T01:02:28.471Z,40.00
2023-05-09T01:07:53.654Z,39.07
2023-05-09T01:13:16.781Z,38.72
2023-05-09T01:18:32.957Z,37.38
2023-05-09T01:23:45.959Z,36.33
2023-05-09T01:29:28.811Z,35.84
2023-05-09T01:34:36.144Z,36.05
2023-05-09T01:39:43.407Z,36.23
2023-05-09T01:44:48.638Z,36.23
2023-05-09T01:49:54.931Z,35.83
2023-05-09T01:55:02.363Z,35.31
2023-05-09T02:00:10.900Z,34.96
2023-05-09T02:05:19.364Z,35.79
2023-05-09T02:10:26.078Z,36.04
2023-05-09T02:15:31.265Z,36.30
2023-05-09T02:20:37.953Z,35.66
2023-05-09T02:25:42.356Z,36.08
2023-05-09T02:30:48.177Z,35.47
2023-05-09T02:35:53.496Z,35.69
2023-05-09T02:40:57.551Z,35.49
2023-05-09T02:46:03.615Z,35.50
2023-05-09T02:51:07.460Z,34.39
2023-05-09T02:56:11.699Z,34.66
2023-05-09T03:01:15.740Z,33.85
2023-05-09T03:06:19.849Z,33.70
2023-05-09T03:11:24.083Z,33.10
2023-05-09T03:16:28.636Z,32.47
2023-05-09T03:21:33.710Z,31.81
2023-05-09T03:26:38.368Z,31.22
2023-05-09T03:31:43.285Z,31.93
2023-05-09T03:36:47.464Z,31.28
2023-05-09T03:41:52.326Z,31.95
2023-05-09T03:46:56.384Z,30.93
2023-05-09T03:52:01.695Z,31.18
2023-05-09T03:57:08.253Z,30.31
2023-05-09T04:02:13.102Z,30.87
2023-05-09T04:07:17.127Z,32.20
2023-05-09T04:12:23.380Z,32.43
2023-05-09T04:17:27.884Z,32.39
2023-05-09T04:22:32.314Z,33.58
2023-05-09T04:27:36.837Z,33.83
2023-05-09T04:32:46.490Z,33.80
2023-05-09T04:37:52.673Z,33.79
2023-05-09T04:42:58.034Z,32.65
2023-05-09T04:48:05.141Z,32.46
2023-05-09T04:53:10.034Z,32.57
2023-05-09T04:58:14.239Z,32.17
2023-05-09T05:03:19.783Z,32.20
2023-05-09T05:08:23.735Z,32.58
2023-05-09T05:13:27.964Z,32.63
2023-05-09T05:18:35.515Z,32.16
2023-05-09T05:23:40.080Z,31.47
2023-05-09T05:28:44.633Z,29.89
2023-05-09T05:33:50.283Z,29.52
2023-05-09T05:38:54.476Z,29.28
2023-05-09T05:43:58.555Z,28.67
2023-05-09T05:49:02.617Z,28.29
2023-05-09T05:54:06.574Z,27.40
2023-05-09T05:59:13.528Z,27.86
2023-05-09T06:04:18.917Z,27.39
2023-05-09T06:09:22.860Z,27.21
2023-05-09T06:14:26.812Z,27.92
2023-05-09T06:19:30.898Z,27.52
2023-05-09T06:24:36.258Z,27.59
2023-05-09T06:29:41.086Z,28.04
2023-05-09T06:34:45.067Z,27.88
2023-05-09T06:39:49.267Z,28.32
2023-05-09T06:44:53.539Z,28.24
2023-05-09T06:49:57.356Z,27.88
2023-05-09T06:55:01.304Z,27.72
2023-05-09T07:00:07.157Z,27.31
2023-05-09T07:05:11.631Z,27.82
2023-05-09T07:10:15.700Z,28.03
2023-05-09T07:15:32.460Z,28.18
2023-05-09T07:20:43.631Z,28.79
2023-05-09T07:25:47.461Z,28.82
2023-05-09T07:30:51.901Z,28.91
2023-05-09T07:35:56.321Z,29.16
2023-05-09T07:41:00.350Z,29.32
2023-05-09T07:46:04.672Z,28.49
2023-05-09T07:51:08.729Z,28.55
2023-05-09T07:56:14.188Z,27.56
2023-05-09T08:01:18.006Z,27.57
2023-05-09T08:06:22.161Z,27.96
2023-05-09T08:11:27.135Z,27.55
2023-05-09T08:16:31.220Z,27.50
2023-05-09T08:21:35.051Z,27.20
2023-05-09T08:26:39.268Z,27.15
2023-05-09T08:31:43.304Z,27.45
2023-05-09T08:36:47.810Z,27.50
2023-05-09T08:41:52.919Z,27.92
2023-05-09T08:47:02.120Z,28.19
2023-05-09T08:52:06.479Z,28.52
2023-05-09T08:57:10.598Z,28.63
2023-05-09T09:02:15.936Z,28.49
2023-05-09T09:07:21.726Z,28.22
2023-05-09T09:12:25.803Z,28.31
2023-05-09T09:17:31.503Z,27.76
2023-05-09T09:22:37.709Z,28.16
2023-05-09T09:27:43.013Z,27.79
2023-05-09T09:32:47.349Z,28.10
2023-05-09T09:38:00.125Z,28.66
2023-05-09T09:43:10.588Z,29.54
2023-05-09T09:48:14.070Z,29.18
2023-05-09T09:53:21.436Z,29.64
2023-05-09T09:58:28.112Z,29.80
2023-05-09T10:03:40.202Z,30.37
2023-05-09T10:08:50.070Z,29.86
2023-05-09T10:13:54.296Z,30.00
2023-05-09T10:18:58.331Z,30.02
2023-05-09T10:24:04.451Z,30.54
2023-05-09T10:29:13.895Z,31.33
2023-05-09T10:34:19.017Z,31.52
2023-05-09T10:39:24.361Z,32.09
2023-05-09T10:44:28.313Z,33.07
2023-05-09T10:49:34.933Z,33.51
2023-05-09T10:54:40.906Z,33.05
2023-05-09T10:59:45.929Z,33.22
2023-05-09T11:04:50.116Z,33.99
2023-05-09T11:10:07.209Z,34.23
2023-05-09T11:15:12.028Z,33.86
2023-05-09T11:20:16.646Z,33.47
2023-05-09T11:25:29.980Z,33.19
2023-05-09T11:30:43.452Z,33.10
2023-05-09T11:35:47.887Z,34.08
2023-05-09T11:40:52.980Z,34.86
2023-05-09T11:45:58.268Z,36.16
2023-05-09T11:51:04.392Z,37.04
2023-05-09T11:56:08.472Z,36.63
2023-05-09T12:01:13.567Z,37.19
2023-05-09T12:06:18.847Z,36.79
2023-05-09T12:11:24.736Z,36.93
2023-05-09T12:16:28.676Z,37.15
2023-05-09T12:21:32.612Z,37.32
2023-05-09T12:26:36.927Z,37.31
2023-05-09T12:31:43.051Z,37.10
2023-05-09T12:36:52.419Z,37.26
2023-05-09T12:42:33.397Z,37.02
2023-05-09T12:47:42.900Z,36.13
2023-05-09T12:53:02.887Z,36.04
2023-05-09T12:58:07.894Z,36.21
2023-05-09T13:03:38.708Z,36.37
2023-05-09T13:08:42.880Z,36.93
2023-05-09T13:13:46.812Z,37.30
2023-05-09T13:18:50.965Z,37.75
2023-05-09T13:23:55.008Z,38.33
2023-05-09T13:28:59.396Z,38.70
2023-05-09T13:34:03.484Z,39.21
2023-05-09T13:39:07.348Z,39.54
2023-05-09T13:44:11.269Z,39.99
2023-05-09T13:49:15.256Z,40.64
2023-05-09T13:54:21.018Z,40.93
2023-05-09T13:59:25.036Z,41.38
2023-05-09T14:04:30.617Z,41.87
2023-05-09T14:09:40.809Z,42.00
2023-05-09T14:14:44.661Z,42.60
2023-05-09T14:19:48.826Z,43.01
2023-05-09T14:24:53.651Z,43.21
2023-05-09T14:29:58.047Z,44.31
2023-05-09T14:35:02.289Z,44.48
2023-05-09T14:40:08.122Z,45.12
2023-05-09T14:45:14.222Z,46.32
2023-05-09T14:50:18.269Z,47.13
2023-05-09T14:55:23.991Z,47.68
2023-05-09T15:00:29.230Z,48.43
2023-05-09T15:05:33.608Z,48.90
2023-05-09T15:10:37.557Z,49.21
2023-05-09T15:15:42.532Z,48.51
2023-05-09T15:20:46.547Z,47.72
2023-05-09T15:25:50.673Z,47.01
2023-05-09T15:30:55.045Z,46.92
2023-05-09T15:36:04.152Z,46.18
2023-05-09T15:41:09.976Z,45.06
2023-05-09T15:46:15.912Z,44.21
2023-05-09T15:51:20.045Z,42.36
2023-05-09T15:56:24.317Z,40.62
2023-05-09T16:01:28.344Z,40.62
2023-05-09T16:06:34.378Z,40.43
2023-05-09T16:11:38.495Z,40.69
2023-05-09T16:16:43.504Z,40.43
2023-05-09T16:21:47.984Z,40.87
2023-05-09T16:26:52.029Z,40.13
2023-05-09T16:31:56.023Z,40.80
2023-05-09T16:37:00.145Z,41.11
2023-05-09T16:42:05.007Z,41.31
2023-05-09T16:47:08.958Z,41.75
2023-05-09T16:52:13.227Z,41.91
2023-05-09T16:57:17.766Z,42.31
2023-05-09T17:02:21.814Z,42.67
2023-05-09T17:07:25.772Z,42.86
2023-05-09T17:12:29.926Z,42.81
2023-05-09T17:17:34.388Z,43.03
2023-05-09T17:22:39.086Z,43.20
2023-05-09T17:27:43.406Z,43.17
2023-05-09T17:32:47.297Z,43.00
2023-05-09T17:37:51.826Z,43.12
2023-05-09T17:42:55.700Z,43.14
2023-05-09T17:48:00.799Z,43.18
2023-05-09T17:53:04.929Z,43.57
2023-05-09T17:58:09.214Z,43.22
2023-05-09T18:03:13.427Z,43.40
2023-05-09T18:08:17.960Z,43.63
2023-05-09T18:13:25.314Z,43.80
2023-05-09T18:18:31.878Z,43.48
2023-05-09T18:23:36.037Z,43.37
2023-05-09T18:28:40.527Z,43.24
2023-05-09T18:33:45.122Z,44.10
2023-05-09T18:38:48.944Z,44.03
2023-05-09T18:43:53.964Z,44.15
2023-05-09T18:48:57.984Z,44.01
2023-05-09T18:54:02.053Z,44.66
2023-05-09T18:59:07.517Z,44.43
2023-05-09T19:04:11.668Z,44.24
2023-05-09T19:09:15.655Z,44.76
2023-05-09T19:14:20.178Z,44.79
2023-05-09T19:19:24.135Z,44.88
2023-05-09T19:24:28.782Z,45.01
2023-05-09T19:29:32.790Z,44.54
2023-05-09T19:34:37.402Z,45.59
2023-05-09T19:39:41.349Z,45.16
2023-05-09T19:44:47.379Z,45.04
2023-05-09T19:49:51.491Z,44.96
2023-05-09T19:54:56.031Z,45.37
2023-05-09T19:59:59.889Z,45.32
2023-05-09T20:05:04.539Z,45.49
2023-05-09T20:10:09.703Z,45.69
2023-05-09T20:15:14.441Z,45.86
2023-05-09T20:20:19.097Z,46.08
2023-05-09T20:25:23.941Z,45.94
2023-05-09T20:30:28.028Z,46.19
2023-05-09T20:35:32.251Z,46.15
2023-05-09T20:40:36.750Z,46.56
2023-05-09T20:45:40.842Z,46.63
2023-05-09T20:50:44.924Z,47.08
2023-05-09T20:55:50.429Z,46.85
2023-05-09T21:00:55.032Z,47.17
2023-05-09T21:05:59.621Z,47.48
2023-05-09T21:11:03.740Z,47.57
2023-05-09T21:16:07.764Z,48.01
2023-05-09T21:21:12.118Z,47.67
2023-05-09T21:26:17.210Z,47.99
2023-05-09T21:31:21.516Z,47.89
2023-05-09T21:36:25.919Z,48.42
2023-05-09T21:41:29.733Z,48.32
2023-05-09T21:46:34.421Z,48.26
2023-05-09T21:51:38.572Z,48.59
2023-05-09T21:56:43.255Z,48.61
2023-05-09T22:01:47.289Z,49.53
2023-05-09T22:06:51.423Z,49.25
2023-05-09T22:11:55.437Z,49.74
2023-05-09T22:17:00.130Z,50.52
2023-05-09T22:22:04.307Z,50.81
2023-05-09T22:27:12.263Z,50.37
2023-05-09T22:32:16.236Z,51.32
2023-05-09T22:37:20.249Z,51.74
2023-05-09T22:42:24.263Z,51.34
2023-05-09T22:47:28.168Z,51.63
2023-05-09T22:52:32.363Z,51.81
2023-05-09T22:57:36.500Z,52.00
2023-05-09T23:02:40.666Z,51.45
2023-05-09T23:07:45.712Z,52.15
2023-05-09T23:12:49.595Z,51.61
2023-05-09T23:17:53.702Z,50.56
2023-05-09T23:22:57.843Z,50.55
2023-05-09T23:28:02.067Z,50.74
2023-05-09T23:33:06.115Z,49.77
2023-05-09T23:38:10.285Z,50.06
2023-05-09T23:43:14.630Z,49.69
2023-05-09T23:48:18.406Z,49.25
2023-05-09T23:53:22.705Z,48.20
2023-05-09T23:58:26.497Z,48.19
